createdAt,value
2022-10-04T00:00:36.659Z,25.20
2022-10-04T00:03:26.093Z,25.00
2022-10-04T00:05:57.906Z,24.90
2022-10-04T00:08:53.517Z,25.50
2022-10-04T00:11:30.201Z,25.00
2022-10-04T00:14:07.062Z,24.90
2022-10-04T00:16:39.913Z,25.00
2022-10-04T00:19:16.217Z,25.00
2022-10-04T00:21:56.497Z,25.20
2022-10-04T00:24:24.952Z,25.10
2022-10-04T00:26:51.808Z,25.10
2022-10-04T00:29:32.359Z,25.10
2022-10-04T00:32:11.194Z,25.10
2022-10-04T00:34:54.684Z,25.00
2022-10-04T00:37:23.582Z,25.10
2022-10-04T00:40:01.423Z,25.10
2022-10-04T00:42:45.823Z,25.10
2022-10-04T00:45:28.708Z,25.00
2022-10-04T00:48:03.300Z,25.00
2022-10-04T00:50:45.983Z,25.00
2022-10-04T00:53:35.483Z,25.20
2022-10-04T00:56:06.487Z,25.20
2022-10-04T00:58:40.850Z,25.20
2022-10-04T01:01:09.058Z,25.50
2022-10-04T01:03:44.309Z,25.30
2022-10-04T01:06:15.063Z,25.30
2022-10-04T01:08:49.568Z,25.20
2022-10-04T01:11:42.988Z,25.30
2022-10-04T01:14:21.624Z,25.20
2022-10-04T01:16:48.818Z,25.20
2022-10-04T01:19:34.417Z,25.20
2022-10-04T01:22:12.081Z,25.20
2022-10-04T01:24:43.712Z,25.20
2022-10-04T01:27:36.852Z,25.50
2022-10-04T01:30:09.288Z,25.30
2022-10-04T01:32:38.566Z,25.20
2022-10-04T01:35:08.325Z,25.20
2022-10-04T01:37:35.502Z,25.10
2022-10-04T01:40:03.027Z,25.10
2022-10-04T01:42:36.772Z,25.00
2022-10-04T01:45:28.403Z,25.20
2022-10-04T01:48:05.637Z,25.20
2022-10-04T01:50:39.274Z,25.30
2022-10-04T01:53:28.930Z,25.30
2022-10-04T01:56:05.580Z,25.20
2022-10-04T01:58:51.087Z,25.20
2022-10-04T02:01:52.482Z,25.10
2022-10-04T02:04:22.638Z,25.30
2022-10-04T02:06:54.364Z,25.10
2022-10-04T02:09:35.038Z,25.10
2022-10-04T02:12:02.553Z,25.20
2022-10-04T02:14:36.054Z,25.10
2022-10-04T02:17:09.237Z,25.10
2022-10-04T02:19:41.016Z,25.20
2022-10-04T02:22:10.860Z,25.20
2022-10-04T02:24:42.432Z,25.30
2022-10-04T02:27:09.707Z,25.10
2022-10-04T02:29:36.746Z,25.10
2022-10-04T02:32:28.747Z,25.20
2022-10-04T02:34:56.481Z,25.60
2022-10-04T02:37:28.756Z,25.70
2022-10-04T02:40:30.283Z,25.50
2022-10-04T02:43:11.722Z,25.60
2022-10-04T02:45:42.518Z,25.70
2022-10-04T02:48:18.244Z,25.60
2022-10-04T02:50:50.637Z,25.30
2022-10-04T02:53:32.590Z,25.20
2022-10-04T02:55:59.528Z,25.00
2022-10-04T02:58:27.171Z,25.00
2022-10-04T03:01:00.300Z,25.70
2022-10-04T03:03:35.229Z,25.10
2022-10-04T03:06:18.117Z,25.40
2022-10-04T03:08:54.049Z,25.30
2022-10-04T03:11:25.041Z,25.20
2022-10-04T03:13:55.155Z,25.40
2022-10-04T03:16:22.564Z,25.60
2022-10-04T03:18:51.121Z,25.30
2022-10-04T03:21:20.255Z,25.50
2022-10-04T03:23:50.488Z,25.50
2022-10-04T03:26:29.601Z,25.60
2022-10-04T03:29:00.425Z,25.40
2022-10-04T03:31:28.758Z,25.30
2022-10-04T03:33:57.698Z,25.30
2022-10-04T03:36:26.543Z,25.30
2022-10-04T03:38:56.269Z,25.20
2022-10-04T03:41:25.883Z,25.20
2022-10-04T03:43:55.069Z,25.30
2022-10-04T03:46:24.171Z,25.20
2022-10-04T03:48:53.395Z,25.20
2022-10-04T03:51:24.320Z,25.50
2022-10-04T03:53:57.937Z,26.20
2022-10-04T03:56:33.144Z,26.30
2022-10-04T03:59:04.372Z,26.20
2022-10-04T04:01:50.666Z,26.00
2022-10-04T04:04:42.718Z,25.70
2022-10-04T04:07:21.197Z,25.30
2022-10-04T04:09:54.814Z,25.90
2022-10-04T04:12:27.270Z,25.60
2022-10-04T04:14:54.881Z,25.30
2022-10-04T04:17:27.739Z,25.30
2022-10-04T04:19:58.342Z,25.30
2022-10-04T04:22:31.440Z,25.30
2022-10-04T04:25:05.147Z,25.30
2022-10-04T04:27:35.524Z,25.30
2022-10-04T04:30:04.822Z,25.30
2022-10-04T04:32:42.010Z,25.20
2022-10-04T04:35:30.528Z,25.30
2022-10-04T04:38:07.065Z,25.30
2022-10-04T04:40:34.349Z,25.30
2022-10-04T04:43:03.208Z,25.30
2022-10-04T04:45:34.526Z,25.40
2022-10-04T04:48:03.726Z,25.40
2022-10-04T04:50:37.555Z,25.30
2022-10-04T04:53:20.721Z,25.20
2022-10-04T04:56:03.780Z,25.10
2022-10-04T04:58:38.989Z,25.10
2022-10-04T05:01:28.671Z,26.10
2022-10-04T05:04:12.714Z,25.70
2022-10-04T05:06:42.788Z,25.80
2022-10-04T05:09:45.383Z,25.70
2022-10-04T05:12:30.528Z,25.90
2022-10-04T05:14:57.505Z,26.20
2022-10-04T05:17:33.862Z,26.20
2022-10-04T05:20:02.826Z,26.30
2022-10-04T05:22:31.515Z,26.40
2022-10-04T05:25:07.734Z,26.40
2022-10-04T05:27:40.364Z,26.20
2022-10-04T05:33:50.285Z,26.70
2022-10-04T05:36:32.093Z,26.60
2022-10-04T05:39:11.430Z,26.70
2022-10-04T05:42:12.486Z,26.90
2022-10-04T05:44:52.083Z,26.80
2022-10-04T05:47:27.822Z,26.80
2022-10-04T05:50:01.178Z,26.80
2022-10-04T05:52:36.129Z,26.50
2022-10-04T05:55:24.241Z,26.10
2022-10-04T05:58:03.374Z,26.00
2022-10-04T06:00:36.517Z,25.60
2022-10-04T06:03:09.283Z,25.20
2022-10-04T06:05:55.691Z,25.50
2022-10-04T06:09:07.211Z,25.20
2022-10-04T06:11:52.596Z,24.80
2022-10-04T06:14:19.470Z,24.20
2022-10-04T06:17:20.986Z,23.60
2022-10-04T06:19:48.322Z,23.40
2022-10-04T06:22:23.456Z,22.90
2022-10-04T06:24:57.762Z,22.90
2022-10-04T06:27:37.027Z,22.60
2022-10-04T06:30:15.118Z,22.30
2022-10-04T06:33:06.952Z,21.90
2022-10-04T06:35:43.819Z,21.70
2022-10-04T06:38:32.939Z,21.60
2022-10-04T06:41:08.565Z,21.30
2022-10-04T06:43:54.494Z,21.60
2022-10-04T06:46:51.194Z,21.50
2022-10-04T06:49:20.994Z,21.30
2022-10-04T06:52:16.623Z,21.00
2022-10-04T06:55:19.526Z,20.80
2022-10-04T06:58:09.600Z,20.70
2022-10-04T07:01:05.237Z,20.60
2022-10-04T07:03:37.306Z,20.40
2022-10-04T07:06:07.894Z,20.50
2022-10-04T07:08:50.349Z,20.60
2022-10-04T07:11:46.917Z,20.70
2022-10-04T07:14:18.839Z,20.60
2022-10-04T07:16:57.105Z,20.50
2022-10-04T07:19:42.003Z,20.10
2022-10-04T07:22:21.804Z,20.20
2022-10-04T07:24:51.675Z,19.70
2022-10-04T07:27:46.182Z,19.40
2022-10-04T07:30:19.123Z,19.40
2022-10-04T07:32:50.695Z,20.10
2022-10-04T07:35:43.970Z,20.20
2022-10-04T07:38:14.051Z,20.50
2022-10-04T07:41:00.703Z,20.60
2022-10-04T07:43:32.164Z,20.70
2022-10-04T07:46:22.096Z,21.10
2022-10-04T07:48:49.464Z,21.20
2022-10-04T07:51:23.375Z,21.30
2022-10-04T07:53:54.509Z,21.20
2022-10-04T07:56:31.738Z,20.90
2022-10-04T07:59:25.992Z,20.00
2022-10-04T08:02:16.479Z,19.70
2022-10-04T08:04:55.678Z,20.20
2022-10-04T08:07:43.368Z,20.20
2022-10-04T08:10:35.120Z,20.00
2022-10-04T08:13:31.590Z,20.30
2022-10-04T08:16:35.762Z,19.70
2022-10-04T08:19:25.975Z,19.40
2022-10-04T08:22:02.648Z,19.30
2022-10-04T08:24:39.975Z,19.70
2022-10-04T08:27:30.214Z,20.50
2022-10-04T08:30:19.873Z,20.70
2022-10-04T08:33:08.172Z,21.30
2022-10-04T08:36:00.922Z,21.50
2022-10-04T08:38:46.916Z,21.60
2022-10-04T08:41:54.208Z,21.80
2022-10-04T08:44:33.072Z,21.80
2022-10-04T08:47:52.421Z,21.10
2022-10-04T08:50:28.372Z,20.40
2022-10-04T08:53:33.497Z,20.40
2022-10-04T08:56:25.149Z,20.80
2022-10-04T08:59:13.203Z,21.40
2022-10-04T09:02:15.959Z,21.30
2022-10-04T09:05:25.694Z,21.20
2022-10-04T09:08:29.779Z,20.60
2022-10-04T09:11:27.260Z,19.60
2022-10-04T09:14:00.296Z,20.10
2022-10-04T09:17:11.389Z,21.40
2022-10-04T09:20:37.872Z,22.00
2022-10-04T09:23:30.191Z,22.00
2022-10-04T09:26:20.799Z,21.00
2022-10-04T09:29:11.580Z,19.80
2022-10-04T09:31:52.531Z,19.20
2022-10-04T09:34:51.025Z,19.00
2022-10-04T09:37:27.002Z,19.40
2022-10-04T09:40:23.044Z,19.70
2022-10-04T09:42:56.035Z,20.60
2022-10-04T09:45:58.198Z,19.70
2022-10-04T09:48:31.224Z,19.50
2022-10-04T09:51:39.230Z,19.50
2022-10-04T09:54:33.080Z,19.80
2022-10-04T09:57:06.941Z,20.00
2022-10-04T10:00:29.545Z,20.00
2022-10-04T10:03:02.696Z,19.60
2022-10-04T10:05:45.049Z,19.90
2022-10-04T10:08:36.463Z,19.80
2022-10-04T10:11:40.932Z,20.70
2022-10-04T10:14:35.652Z,19.90
2022-10-04T10:17:27.057Z,20.10
2022-10-04T10:20:18.533Z,20.00
2022-10-04T10:23:13.510Z,19.30
2022-10-04T10:26:01.630Z,19.30
2022-10-04T10:28:55.092Z,19.50
2022-10-04T10:31:47.592Z,19.50
2022-10-04T10:34:29.917Z,18.90
2022-10-04T10:37:07.108Z,18.50
2022-10-04T10:39:43.143Z,18.20
2022-10-04T10:42:12.819Z,18.50
2022-10-04T10:45:17.389Z,18.90
2022-10-04T10:47:59.808Z,19.30
2022-10-04T10:50:30.164Z,18.80
2022-10-04T10:53:00.433Z,18.80
2022-10-04T10:55:49.570Z,18.50
2022-10-04T10:58:48.583Z,18.40
2022-10-04T11:01:53.775Z,18.40
2022-10-04T11:04:42.997Z,18.90
2022-10-04T11:07:27.716Z,18.00
2022-10-04T11:10:32.893Z,18.00
2022-10-04T11:13:12.168Z,18.90
2022-10-04T11:16:02.944Z,19.30
2022-10-04T11:18:57.184Z,19.40
2022-10-04T11:22:13.378Z,19.00
2022-10-04T11:25:07.848Z,18.70
2022-10-04T11:27:49.314Z,18.30
2022-10-04T11:30:30.293Z,18.30
2022-10-04T11:33:03.514Z,17.80
2022-10-04T11:36:01.349Z,17.20
2022-10-04T11:38:56.169Z,17.20
2022-10-04T11:41:44.297Z,17.40
2022-10-04T11:44:40.369Z,18.40
2022-10-04T11:47:29.367Z,18.70
2022-10-04T11:50:16.089Z,18.90
2022-10-04T11:52:49.847Z,18.80
2022-10-04T11:55:31.486Z,18.70
2022-10-04T11:58:11.996Z,18.40
2022-10-04T12:01:16.898Z,18.40
2022-10-04T12:04:28.390Z,18.10
2022-10-04T12:07:43.099Z,18.10
2022-10-04T12:10:40.052Z,19.10
2022-10-04T12:13:25.494Z,18.90
2022-10-04T12:16:28.021Z,19.80
2022-10-04T12:19:38.031Z,20.20
2022-10-04T12:22:39.491Z,20.50
2022-10-04T12:25:49.137Z,20.30
2022-10-04T12:29:05.080Z,20.20
2022-10-04T12:31:38.129Z,20.70
2022-10-04T12:34:15.147Z,20.90
2022-10-04T12:36:59.717Z,21.30
2022-10-04T12:39:57.257Z,21.50
2022-10-04T12:42:35.359Z,21.20
2022-10-04T12:45:16.272Z,20.90
2022-10-04T12:47:52.189Z,20.60
2022-10-04T12:50:50.493Z,20.70
2022-10-04T12:53:17.670Z,21.20
2022-10-04T12:56:17.345Z,21.20
2022-10-04T12:59:09.185Z,21.20
2022-10-04T13:02:14.286Z,21.80
2022-10-04T13:05:05.662Z,20.90
2022-10-04T13:07:39.384Z,20.50
2022-10-04T13:10:24.281Z,20.60
2022-10-04T13:13:13.091Z,20.90
2022-10-04T13:19:18.415Z,21.50
2022-10-04T13:21:58.159Z,21.90
2022-10-04T13:25:04.082Z,21.90
2022-10-04T13:27:51.186Z,22.20
2022-10-04T13:30:54.291Z,22.70
2022-10-04T13:34:04.464Z,23.00
2022-10-04T13:37:21.280Z,22.30
2022-10-04T13:39:56.925Z,22.50
2022-10-04T13:42:24.504Z,22.60
2022-10-04T13:45:36.152Z,22.40
2022-10-04T13:48:44.326Z,21.80
2022-10-04T13:51:25.802Z,21.20
2022-10-04T13:54:30.750Z,20.50
2022-10-04T13:57:15.767Z,20.30
2022-10-04T14:00:05.513Z,20.50
2022-10-04T14:02:46.880Z,21.00
2022-10-04T14:05:27.653Z,21.60
2022-10-04T14:08:18.101Z,21.80
2022-10-04T14:11:24.300Z,22.10
2022-10-04T14:14:29.644Z,22.60
2022-10-04T14:17:34.300Z,22.50
2022-10-04T14:20:27.589Z,22.40
2022-10-04T14:23:34.013Z,22.30
2022-10-04T14:26:47.336Z,22.40
2022-10-04T14:29:29.388Z,22.90
2022-10-04T14:32:23.334Z,22.80
2022-10-04T14:35:26.967Z,22.50
2022-10-04T14:38:26.921Z,22.60
2022-10-04T14:41:16.826Z,22.40
2022-10-04T14:44:21.664Z,22.70
2022-10-04T14:47:07.642Z,22.60
2022-10-04T14:50:05.938Z,22.50
2022-10-04T14:53:07.860Z,22.50
2022-10-04T14:55:50.524Z,22.30
2022-10-04T14:58:48.854Z,22.30
2022-10-04T15:01:24.222Z,22.80
2022-10-04T15:04:20.439Z,22.80
2022-10-04T15:06:52.691Z,22.80
2022-10-04T15:09:39.316Z,23.70
2022-10-04T15:12:58.607Z,24.00
2022-10-04T15:15:32.016Z,23.90
2022-10-04T15:18:24.548Z,24.70
2022-10-04T15:21:01.278Z,24.90
2022-10-04T15:23:33.133Z,25.80
2022-10-04T15:26:24.857Z,26.80
2022-10-04T15:28:53.133Z,26.90
2022-10-04T15:31:51.771Z,27.50
2022-10-04T15:35:09.796Z,27.00
2022-10-04T15:38:17.293Z,27.10
2022-10-04T15:41:10.173Z,26.90
2022-10-04T15:44:03.624Z,27.20
2022-10-04T15:46:49.391Z,26.70
2022-10-04T15:49:42.900Z,26.90
2022-10-04T15:52:39.609Z,27.10
2022-10-04T15:55:42.986Z,26.90
2022-10-04T15:58:52.848Z,26.60
2022-10-04T16:01:49.726Z,26.20
2022-10-04T16:04:33.982Z,25.80
2022-10-04T16:07:01.771Z,26.10
2022-10-04T16:10:02.711Z,26.40
2022-10-04T16:12:53.414Z,26.30
2022-10-04T16:15:36.622Z,26.00
2022-10-04T16:18:38.331Z,26.10
2022-10-04T16:21:37.337Z,25.90
2022-10-04T16:24:25.447Z,25.90
2022-10-04T16:26:55.635Z,25.90
2022-10-04T16:29:53.969Z,25.70
2022-10-04T16:32:40.388Z,25.90
2022-10-04T16:35:34.070Z,25.90
2022-10-04T16:38:25.102Z,26.20
2022-10-04T16:40:55.520Z,26.10
2022-10-04T16:43:31.203Z,26.10
2022-10-04T16:46:20.674Z,25.80
2022-10-04T16:49:29.861Z,25.50
2022-10-04T16:52:20.256Z,25.40
2022-10-04T16:55:17.389Z,25.40
2022-10-04T16:57:48.786Z,25.30
2022-10-04T17:00:39.969Z,25.50
2022-10-04T17:03:27.576Z,25.70
2022-10-04T17:06:18.049Z,25.90
2022-10-04T17:08:55.457Z,25.80
2022-10-04T17:11:48.011Z,25.80
2022-10-04T17:14:44.778Z,25.50
2022-10-04T17:18:04.258Z,25.30
2022-10-04T17:20:46.634Z,25.50
2022-10-04T17:23:49.944Z,25.70
2022-10-04T17:26:45.589Z,25.90
2022-10-04T17:29:17.582Z,26.70
2022-10-04T17:32:17.555Z,27.00
2022-10-04T17:35:07.102Z,27.20
2022-10-04T17:37:57.821Z,27.70
2022-10-04T17:40:52.971Z,28.20
2022-10-04T17:43:57.355Z,28.10
2022-10-04T17:46:55.430Z,28.10
2022-10-04T17:50:00.859Z,27.90
2022-10-04T17:52:53.750Z,28.20
2022-10-04T17:55:31.942Z,28.40
2022-10-04T17:58:07.796Z,28.20
2022-10-04T18:01:09.036Z,28.60
2022-10-04T18:03:57.843Z,28.60
2022-10-04T18:07:02.867Z,28.60
2022-10-04T18:09:45.880Z,29.20
2022-10-04T18:12:52.539Z,29.90
2022-10-04T18:15:53.475Z,30.00
2022-10-04T18:18:28.538Z,30.90
2022-10-04T18:21:06.860Z,30.90
2022-10-04T18:23:40.505Z,30.90
2022-10-04T18:26:34.005Z,30.90
2022-10-04T18:29:08.360Z,31.00
2022-10-04T18:31:42.321Z,30.90
2022-10-04T18:34:17.649Z,30.70
2022-10-04T18:37:06.109Z,30.40
2022-10-04T18:39:53.260Z,30.10
2022-10-04T18:42:39.161Z,30.00
2022-10-04T18:45:29.838Z,29.60
2022-10-04T18:48:06.269Z,29.20
2022-10-04T18:50:44.479Z,28.90
2022-10-04T18:53:44.222Z,28.60
2022-10-04T18:56:13.622Z,29.10
2022-10-04T18:59:22.458Z,29.60
2022-10-04T19:02:03.095Z,30.20
2022-10-04T19:05:00.468Z,30.10
2022-10-04T19:08:04.925Z,30.00
2022-10-04T19:10:45.902Z,29.60
2022-10-04T19:13:35.831Z,29.30
2022-10-04T19:16:31.526Z,29.00
2022-10-04T19:19:29.836Z,28.80
2022-10-04T19:22:27.236Z,29.30
2022-10-04T19:25:34.573Z,29.70
2022-10-04T19:28:24.766Z,29.80
2022-10-04T19:31:30.759Z,30.00
2022-10-04T19:34:11.240Z,30.20
2022-10-04T19:37:08.090Z,30.10
2022-10-04T19:39:59.404Z,30.70
2022-10-04T19:42:52.945Z,30.40
2022-10-04T19:46:17.980Z,30.40
2022-10-04T19:48:56.982Z,30.00
2022-10-04T19:52:01.408Z,29.80
2022-10-04T19:54:41.028Z,29.80
2022-10-04T19:57:16.136Z,29.20
2022-10-04T19:59:49.238Z,28.80
2022-10-04T20:02:18.693Z,28.60
2022-10-04T20:04:50.880Z,28.60
2022-10-04T20:07:27.903Z,28.70
2022-10-04T20:10:21.386Z,28.90
2022-10-04T20:13:36.596Z,29.20
2022-10-04T20:16:08.861Z,28.80
2022-10-04T20:18:43.810Z,28.40
2022-10-04T20:21:31.686Z,28.40
2022-10-04T20:23:59.201Z,28.50
2022-10-04T20:26:56.924Z,28.70
2022-10-04T20:29:39.411Z,28.90
2022-10-04T20:32:13.222Z,29.40
2022-10-04T20:34:40.108Z,30.00
2022-10-04T20:37:11.174Z,30.60
2022-10-04T20:39:53.230Z,30.50
2022-10-04T20:42:36.283Z,29.80
2022-10-04T20:45:25.989Z,29.60
2022-10-04T20:47:59.973Z,28.90
2022-10-04T20:50:35.803Z,28.50
2022-10-04T20:53:20.373Z,28.40
2022-10-04T20:55:54.838Z,28.30
2022-10-04T20:58:35.307Z,28.20
2022-10-04T21:04:15.524Z,27.90
2022-10-04T21:07:15.419Z,27.90
2022-10-04T21:09:42.571Z,28.80
2022-10-04T21:12:29.302Z,28.90
2022-10-04T21:15:05.835Z,28.80
2022-10-04T21:17:32.681Z,28.80
2022-10-04T21:19:59.575Z,28.60
2022-10-04T21:22:26.533Z,28.90
2022-10-04T21:24:56.306Z,29.10
2022-10-04T21:27:32.745Z,29.50
2022-10-04T21:30:02.231Z,29.50
2022-10-04T21:32:34.962Z,29.60
2022-10-04T21:35:03.737Z,29.70
2022-10-04T21:37:31.216Z,29.80
2022-10-04T21:39:58.409Z,30.30
2022-10-04T21:42:26.882Z,30.50
2022-10-04T21:44:59.309Z,30.00
2022-10-04T21:47:26.263Z,29.50
2022-10-04T21:49:53.992Z,29.50
2022-10-04T21:52:21.132Z,29.60
2022-10-04T21:54:48.036Z,29.90
2022-10-04T21:57:15.107Z,29.80
2022-10-04T21:59:42.213Z,29.80
2022-10-04T22:02:09.754Z,29.60
2022-10-04T22:04:38.283Z,29.60
2022-10-04T22:07:05.394Z,29.50
2022-10-04T22:09:34.965Z,29.50
2022-10-04T22:12:02.174Z,29.50
2022-10-04T22:14:29.146Z,29.40
2022-10-04T22:16:56.216Z,29.40
2022-10-04T22:19:23.216Z,29.60
2022-10-04T22:21:50.164Z,30.00
2022-10-04T22:24:19.897Z,29.50
2022-10-04T22:26:47.471Z,29.40
2022-10-04T22:29:16.505Z,29.30
2022-10-04T22:31:49.389Z,29.40
2022-10-04T22:34:19.284Z,29.20
2022-10-04T22:36:50.310Z,29.00
2022-10-04T22:39:18.216Z,29.40
2022-10-04T22:41:47.927Z,29.40
2022-10-04T22:44:19.093Z,29.00
2022-10-04T22:46:48.324Z,28.80
2022-10-04T22:49:22.234Z,29.20
2022-10-04T22:51:51.186Z,29.20
2022-10-04T22:54:37.988Z,29.40
2022-10-04T22:57:04.949Z,29.20
2022-10-04T22:59:39.162Z,29.00
2022-10-04T23:02:12.973Z,28.80
2022-10-04T23:04:41.391Z,28.90
2022-10-04T23:07:08.442Z,29.00
2022-10-04T23:09:37.836Z,29.30
2022-10-04T23:12:08.749Z,29.40
2022-10-04T23:14:38.018Z,29.70
2022-10-04T23:17:27.359Z,29.70
2022-10-04T23:20:01.707Z,29.20
2022-10-04T23:22:30.811Z,29.40
2022-10-04T23:24:58.135Z,29.40
2022-10-04T23:27:25.314Z,29.80
2022-10-04T23:30:03.990Z,30.40
2022-10-04T23:32:33.750Z,30.30
2022-10-04T23:35:01.850Z,30.60
2022-10-04T23:37:34.021Z,31.30
2022-10-04T23:40:01.237Z,31.60
2022-10-04T23:42:32.284Z,31.40
2022-10-04T23:45:00.327Z,30.70
2022-10-04T23:47:37.429Z,29.80
2022-10-04T23:50:36.410Z,29.40
2022-10-04T23:53:06.645Z,29.20
2022-10-04T23:55:44.011Z,29.20
2022-10-04T23:58:16.878Z,29.00
